createdAt,value
2023-01-26T00:01:02.635Z,2.04
2023-01-26T00:03:32.205Z,2.00
2023-01-26T00:06:04.567Z,2.02
2023-01-26T00:08:37.037Z,2.04
2023-01-26T00:11:05.619Z,2.09
2023-01-26T00:13:33.630Z,2.07
2023-01-26T00:16:02.001Z,2.10
2023-01-26T00:18:29.983Z,2.02
2023-01-26T00:20:58.262Z,1.99
2023-01-26T00:23:26.367Z,1.97
2023-01-26T00:25:55.715Z,1.96
2023-01-26T00:28:23.663Z,1.98
2023-01-26T00:30:51.623Z,1.96
2023-01-26T00:33:19.595Z,1.95
2023-01-26T00:35:55.398Z,1.98
2023-01-26T00:38:23.326Z,1.96
2023-01-26T00:40:51.431Z,1.95
2023-01-26T00:43:20.719Z,1.93
2023-01-26T00:45:48.684Z,1.91
2023-01-26T00:48:16.674Z,1.90
2023-01-26T00:50:44.637Z,1.89
2023-01-26T00:53:12.591Z,1.86
2023-01-26T00:55:40.516Z,1.85
2023-01-26T00:58:08.972Z,1.81
2023-01-26T01:00:39.160Z,1.81
2023-01-26T01:03:07.391Z,1.79
2023-01-26T01:05:35.590Z,1.80
2023-01-26T01:08:03.658Z,1.79
2023-01-26T01:10:31.600Z,1.81
2023-01-26T01:12:59.561Z,1.84
2023-01-26T01:15:27.524Z,1.79
2023-01-26T01:17:56.826Z,1.83
2023-01-26T01:20:24.798Z,1.82
2023-01-26T01:22:53.107Z,1.86
2023-01-26T01:25:21.039Z,1.85
2023-01-26T01:27:48.985Z,1.83
2023-01-26T01:30:17.045Z,1.82
2023-01-26T01:32:45.055Z,1.78
2023-01-26T01:35:14.419Z,1.81
2023-01-26T01:37:42.384Z,1.84
2023-01-26T01:40:13.583Z,1.79
2023-01-26T01:42:48.189Z,1.79
2023-01-26T01:45:49.206Z,1.69
2023-01-26T01:48:21.510Z,1.57
2023-01-26T01:50:51.047Z,1.65
2023-01-26T01:53:24.576Z,1.67
2023-01-26T01:55:54.621Z,1.73
2023-01-26T01:58:22.605Z,1.72
2023-01-26T02:00:50.562Z,1.73
2023-01-26T02:03:21.474Z,1.77
2023-01-26T02:06:01.591Z,1.76
2023-01-26T02:08:32.002Z,1.74
2023-01-26T02:11:01.258Z,1.70
2023-01-26T02:13:29.233Z,1.68
2023-01-26T02:15:57.257Z,1.68
2023-01-26T02:18:25.275Z,1.67
2023-01-26T02:20:54.105Z,1.65
2023-01-26T02:23:34.693Z,1.60
2023-01-26T02:26:11.341Z,1.59
2023-01-26T02:28:39.279Z,1.55
2023-01-26T02:31:07.373Z,1.55
2023-01-26T02:33:35.538Z,1.51
2023-01-26T02:36:03.889Z,1.46
2023-01-26T02:38:38.356Z,1.35
2023-01-26T02:41:08.048Z,1.32
2023-01-26T02:43:36.408Z,1.34
2023-01-26T02:46:04.452Z,1.38
2023-01-26T02:48:49.857Z,1.45
2023-01-26T02:51:17.796Z,1.38
2023-01-26T02:53:45.701Z,1.40
2023-01-26T02:56:12.670Z,1.40
2023-01-26T02:58:42.027Z,1.38
2023-01-26T03:01:10.034Z,1.39
2023-01-26T03:03:45.143Z,1.43
2023-01-26T03:06:13.611Z,1.45
2023-01-26T03:08:41.590Z,1.44
2023-01-26T03:11:09.746Z,1.40
2023-01-26T03:13:37.725Z,1.44
2023-01-26T03:16:10.388Z,1.45
2023-01-26T03:18:55.831Z,1.59
2023-01-26T03:21:41.401Z,1.52
2023-01-26T03:24:28.848Z,1.54
2023-01-26T03:27:14.273Z,1.43
2023-01-26T03:29:42.225Z,1.48
2023-01-26T03:32:11.565Z,1.51
2023-01-26T03:34:39.498Z,1.55
2023-01-26T03:37:07.469Z,1.58
2023-01-26T03:39:52.873Z,1.56
2023-01-26T03:42:38.331Z,1.56
2023-01-26T03:45:24.896Z,1.54
2023-01-26T03:48:11.518Z,1.56
2023-01-26T03:50:56.984Z,1.55
2023-01-26T03:53:42.649Z,1.54
2023-01-26T03:56:22.047Z,1.63
2023-01-26T03:58:52.473Z,1.65
2023-01-26T04:01:26.460Z,1.71
2023-01-26T04:04:13.886Z,1.74
2023-01-26T04:07:01.355Z,1.74
2023-01-26T04:09:29.301Z,1.73
2023-01-26T04:11:57.232Z,1.81
2023-01-26T04:14:50.399Z,1.79
2023-01-26T04:17:36.478Z,1.76
2023-01-26T04:20:24.107Z,1.81
2023-01-26T04:22:52.105Z,1.76
2023-01-26T04:25:21.104Z,1.77
2023-01-26T04:27:49.075Z,1.77
2023-01-26T04:30:17.686Z,1.76
2023-01-26T04:32:46.286Z,1.72
2023-01-26T04:35:15.769Z,1.71
2023-01-26T04:37:43.830Z,1.68
2023-01-26T04:40:13.044Z,1.68
2023-01-26T04:42:41.133Z,1.64
2023-01-26T04:45:10.599Z,1.51
2023-01-26T04:47:38.507Z,1.76
2023-01-26T04:50:07.123Z,1.76
2023-01-26T04:52:36.455Z,1.78
2023-01-26T04:55:04.534Z,1.84
2023-01-26T04:57:32.498Z,1.87
2023-01-26T05:00:00.467Z,1.86
2023-01-26T05:02:28.378Z,1.81
2023-01-26T05:04:56.308Z,1.83
2023-01-26T05:07:24.212Z,1.81
2023-01-26T05:09:53.515Z,1.82
2023-01-26T05:12:38.366Z,1.87
2023-01-26T05:15:07.018Z,1.87
2023-01-26T05:17:36.226Z,1.92
2023-01-26T05:20:04.285Z,1.89
2023-01-26T05:22:32.255Z,1.89
2023-01-26T05:25:01.547Z,1.89
2023-01-26T05:27:29.476Z,1.91
2023-01-26T05:30:00.515Z,1.84
2023-01-26T05:32:28.683Z,1.83
2023-01-26T05:34:56.692Z,1.88
2023-01-26T05:37:25.615Z,1.92
2023-01-26T05:39:53.563Z,1.97
2023-01-26T05:42:23.006Z,1.96
2023-01-26T05:44:50.969Z,1.92
2023-01-26T05:47:18.917Z,1.95
2023-01-26T05:49:46.909Z,1.94
2023-01-26T05:52:16.269Z,1.96
2023-01-26T05:54:44.374Z,1.96
2023-01-26T05:57:13.007Z,1.99
2023-01-26T05:59:42.549Z,1.89
2023-01-26T06:02:10.885Z,1.99
2023-01-26T06:04:38.887Z,2.01
2023-01-26T06:07:06.894Z,2.06
2023-01-26T06:09:34.795Z,2.10
2023-01-26T06:12:02.763Z,2.07
2023-01-26T06:14:30.709Z,2.03
2023-01-26T06:17:00.110Z,2.08
2023-01-26T06:19:28.089Z,2.15
2023-01-26T06:21:56.045Z,2.20
2023-01-26T06:24:24.369Z,2.21
2023-01-26T06:26:52.325Z,2.22
2023-01-26T06:29:20.299Z,2.22
2023-01-26T06:31:48.315Z,2.17
2023-01-26T06:34:17.817Z,2.20
2023-01-26T06:36:45.745Z,2.19
2023-01-26T06:39:13.851Z,2.12
2023-01-26T06:41:42.960Z,2.30
2023-01-26T06:44:11.108Z,2.21
2023-01-26T06:46:39.254Z,2.24
2023-01-26T06:49:07.215Z,2.32
2023-01-26T06:52:20.270Z,2.23
2023-01-26T06:54:49.994Z,2.32
2023-01-26T06:57:17.987Z,2.39
2023-01-26T06:59:45.926Z,2.37
2023-01-26T07:02:17.926Z,2.34
2023-01-26T07:04:46.391Z,2.40
2023-01-26T07:07:15.734Z,2.58
2023-01-26T07:09:43.667Z,2.64
2023-01-26T07:12:11.634Z,2.73
2023-01-26T07:14:39.615Z,2.86
2023-01-26T07:17:07.575Z,2.85
2023-01-26T07:19:35.526Z,2.98
2023-01-26T07:22:03.469Z,3.09
2023-01-26T07:24:32.765Z,3.27
2023-01-26T07:27:00.702Z,3.36
2023-01-26T07:29:28.638Z,3.49
2023-01-26T07:31:56.644Z,3.57
2023-01-26T07:34:24.611Z,3.52
2023-01-26T07:36:53.185Z,3.38
2023-01-26T07:39:21.121Z,3.47
2023-01-26T07:41:50.569Z,3.51
2023-01-26T07:44:18.653Z,3.54
2023-01-26T07:46:46.598Z,3.44
2023-01-26T07:49:14.632Z,3.42
2023-01-26T07:51:42.733Z,3.21
2023-01-26T07:54:11.375Z,3.19
2023-01-26T07:56:39.333Z,3.14
2023-01-26T07:59:08.622Z,3.18
2023-01-26T08:01:36.577Z,3.27
2023-01-26T08:04:04.553Z,3.18
2023-01-26T08:06:32.527Z,3.23
2023-01-26T08:09:00.604Z,3.20
2023-01-26T08:11:28.528Z,3.24
2023-01-26T08:13:56.564Z,3.25
2023-01-26T08:16:25.943Z,3.29
2023-01-26T08:18:53.943Z,3.38
2023-01-26T08:21:21.929Z,3.44
2023-01-26T08:23:50.414Z,3.51
2023-01-26T08:26:19.083Z,3.60
2023-01-26T08:28:47.361Z,3.69
2023-01-26T08:31:18.647Z,3.72
2023-01-26T08:33:48.330Z,3.71
2023-01-26T08:36:16.472Z,3.89
2023-01-26T08:38:44.470Z,4.07
2023-01-26T08:41:12.544Z,4.31
2023-01-26T08:43:40.532Z,4.45
2023-01-26T08:46:08.572Z,4.74
2023-01-26T08:48:37.395Z,4.83
2023-01-26T08:51:07.645Z,4.98
2023-01-26T08:53:36.233Z,5.02
2023-01-26T08:56:04.324Z,5.09
2023-01-26T08:58:33.695Z,5.19
2023-01-26T09:01:05.327Z,5.09
2023-01-26T09:03:33.240Z,5.05
2023-01-26T09:06:01.394Z,5.02
2023-01-26T09:08:30.748Z,4.94
2023-01-26T09:10:58.706Z,4.77
2023-01-26T09:13:26.739Z,4.65
2023-01-26T09:15:54.662Z,4.88
2023-01-26T09:18:22.585Z,4.81
2023-01-26T09:20:51.253Z,4.96
2023-01-26T09:23:19.247Z,4.94
2023-01-26T09:25:53.548Z,5.02
2023-01-26T09:28:21.514Z,5.03
2023-01-26T09:30:49.530Z,4.96
2023-01-26T09:33:17.499Z,4.96
2023-01-26T09:35:45.394Z,4.95
2023-01-26T09:38:13.350Z,4.93
2023-01-26T09:40:44.189Z,4.99
2023-01-26T09:43:22.273Z,5.02
2023-01-26T09:45:56.039Z,5.04
2023-01-26T09:48:28.638Z,5.11
2023-01-26T09:50:58.571Z,5.06
2023-01-26T09:53:27.735Z,5.16
2023-01-26T09:55:55.987Z,5.26
2023-01-26T09:58:30.044Z,5.41
2023-01-26T10:00:59.781Z,5.51
2023-01-26T10:03:29.998Z,5.48
2023-01-26T10:06:00.237Z,5.51
2023-01-26T10:08:28.211Z,5.49
2023-01-26T10:10:59.058Z,5.42
2023-01-26T10:13:28.382Z,5.49
2023-01-26T10:15:59.621Z,5.49
2023-01-26T10:18:29.449Z,5.46
2023-01-26T10:20:57.945Z,5.43
2023-01-26T10:23:27.107Z,5.48
2023-01-26T10:25:55.287Z,5.59
2023-01-26T10:28:25.696Z,5.48
2023-01-26T10:30:55.058Z,5.58
2023-01-26T10:33:26.279Z,5.65
2023-01-26T10:35:54.449Z,5.76
2023-01-26T10:38:29.900Z,5.92
2023-01-26T10:40:58.515Z,6.13
2023-01-26T10:43:26.966Z,6.32
2023-01-26T10:45:56.283Z,6.39
2023-01-26T10:48:26.829Z,6.36
2023-01-26T10:50:55.476Z,6.33
2023-01-26T10:53:24.886Z,6.51
2023-01-26T10:56:00.780Z,6.64
2023-01-26T10:58:49.156Z,6.75
2023-01-26T11:01:19.032Z,6.72
2023-01-26T11:04:00.863Z,6.70
2023-01-26T11:06:28.950Z,6.75
2023-01-26T11:09:01.760Z,6.73
2023-01-26T11:11:30.070Z,6.68
2023-01-26T11:14:12.167Z,6.77
2023-01-26T11:16:41.976Z,6.88
2023-01-26T11:19:13.535Z,6.92
2023-01-26T11:21:42.647Z,6.92
2023-01-26T11:24:12.418Z,6.93
2023-01-26T11:27:17.233Z,6.74
2023-01-26T11:29:54.888Z,6.61
2023-01-26T11:32:28.120Z,6.50
2023-01-26T11:35:03.367Z,6.53
2023-01-26T11:37:41.529Z,6.55
2023-01-26T11:40:16.908Z,6.50
2023-01-26T11:42:47.571Z,6.49
2023-01-26T11:45:22.198Z,6.48
2023-01-26T11:48:05.055Z,6.42
2023-01-26T11:50:36.127Z,6.30
2023-01-26T11:53:19.406Z,6.38
2023-01-26T11:55:57.070Z,6.37
2023-01-26T11:58:31.184Z,6.25
2023-01-26T12:01:00.068Z,6.29
2023-01-26T12:03:32.438Z,6.27
2023-01-26T12:06:01.804Z,6.10
2023-01-26T12:08:38.355Z,5.82
2023-01-26T12:11:21.587Z,5.69
2023-01-26T12:13:52.401Z,5.62
2023-01-26T12:16:24.139Z,5.64
2023-01-26T12:19:09.956Z,5.64
2023-01-26T12:21:39.351Z,5.20
2023-01-26T12:24:12.850Z,5.30
2023-01-26T12:26:48.602Z,5.11
2023-01-26T12:29:18.331Z,5.09
2023-01-26T12:31:48.861Z,5.08
2023-01-26T12:34:18.291Z,5.10
2023-01-26T12:36:49.429Z,5.14
2023-01-26T12:39:18.094Z,5.22
2023-01-26T12:41:58.659Z,5.32
2023-01-26T12:44:31.011Z,5.38
2023-01-26T12:47:01.016Z,5.44
2023-01-26T12:49:32.439Z,5.50
2023-01-26T12:52:02.322Z,5.54
2023-01-26T12:54:32.832Z,5.54
2023-01-26T12:57:00.983Z,5.60
2023-01-26T12:59:39.716Z,5.60
2023-01-26T13:02:28.800Z,5.60
2023-01-26T13:04:58.418Z,5.62
2023-01-26T13:07:31.185Z,5.63
2023-01-26T13:10:24.242Z,5.69
2023-01-26T13:12:53.528Z,5.70
2023-01-26T13:15:21.870Z,5.70
2023-01-26T13:17:54.663Z,5.79
2023-01-26T13:20:52.109Z,5.90
2023-01-26T13:23:46.766Z,5.94
2023-01-26T13:26:19.819Z,5.97
2023-01-26T13:28:48.266Z,6.09
2023-01-26T13:31:30.588Z,6.05
2023-01-26T13:34:00.416Z,6.09
2023-01-26T13:36:30.434Z,6.18
2023-01-26T13:39:01.024Z,6.12
2023-01-26T13:41:28.937Z,6.14
2023-01-26T13:44:00.550Z,6.17
2023-01-26T13:46:31.784Z,6.22
2023-01-26T13:48:59.816Z,6.19
2023-01-26T13:51:30.164Z,6.11
2023-01-26T13:53:59.884Z,5.91
2023-01-26T13:56:32.148Z,5.97
2023-01-26T13:59:11.252Z,6.00
2023-01-26T14:01:43.698Z,5.97
2023-01-26T14:04:14.573Z,5.91
2023-01-26T14:06:45.118Z,5.75
2023-01-26T14:09:13.164Z,5.74
2023-01-26T14:11:41.096Z,5.77
2023-01-26T14:14:23.934Z,5.73
2023-01-26T14:16:51.893Z,5.63
2023-01-26T14:19:21.076Z,5.58
2023-01-26T14:21:52.032Z,5.50
2023-01-26T14:24:21.094Z,5.43
2023-01-26T14:26:49.141Z,5.40
2023-01-26T14:29:21.617Z,5.35
2023-01-26T14:31:50.052Z,5.32
2023-01-26T14:34:21.238Z,5.39
2023-01-26T14:36:50.787Z,5.42
2023-01-26T14:39:19.547Z,5.44
2023-01-26T14:41:47.679Z,5.42
2023-01-26T14:44:15.774Z,5.41
2023-01-26T14:46:52.613Z,5.39
2023-01-26T14:49:22.059Z,5.36
2023-01-26T14:51:53.360Z,5.34
2023-01-26T14:54:25.994Z,5.32
2023-01-26T14:56:53.964Z,5.28
2023-01-26T14:59:23.035Z,5.27
2023-01-26T15:01:51.081Z,5.24
2023-01-26T15:04:23.673Z,5.27
2023-01-26T15:06:53.099Z,5.18
2023-01-26T15:09:22.693Z,5.16
2023-01-26T15:12:11.043Z,5.15
2023-01-26T15:14:39.411Z,5.15
2023-01-26T15:17:07.372Z,5.12
2023-01-26T15:19:42.151Z,5.10
2023-01-26T15:22:21.809Z,5.04
2023-01-26T15:25:04.879Z,5.16
2023-01-26T15:27:34.496Z,5.20
2023-01-26T15:30:02.766Z,5.17
2023-01-26T15:32:32.331Z,5.19
2023-01-26T15:35:09.160Z,5.17
2023-01-26T15:37:38.570Z,5.14
2023-01-26T15:40:08.437Z,5.04
2023-01-26T15:42:36.385Z,5.01
2023-01-26T15:45:04.803Z,5.02
2023-01-26T15:47:32.733Z,5.06
2023-01-26T15:50:00.675Z,5.07
2023-01-26T15:52:30.434Z,5.04
2023-01-26T15:54:59.880Z,5.03
2023-01-26T15:57:28.265Z,5.02
2023-01-26T15:59:56.198Z,5.05
2023-01-26T16:02:24.206Z,5.11
2023-01-26T16:04:52.152Z,5.11
2023-01-26T16:07:20.100Z,5.19
2023-01-26T16:09:49.102Z,5.21
2023-01-26T16:12:31.122Z,5.18
2023-01-26T16:14:59.942Z,5.21
2023-01-26T16:17:27.954Z,5.21
2023-01-26T16:19:55.907Z,5.27
2023-01-26T16:22:23.827Z,5.29
2023-01-26T16:24:51.771Z,5.30
2023-01-26T16:27:21.709Z,5.29
2023-01-26T16:29:49.734Z,5.23
2023-01-26T16:32:25.780Z,5.18
2023-01-26T16:34:53.711Z,5.20
2023-01-26T16:37:21.662Z,5.17
2023-01-26T16:39:49.604Z,5.27
2023-01-26T16:42:18.759Z,5.23
2023-01-26T16:44:48.380Z,5.28
2023-01-26T16:47:16.304Z,5.34
2023-01-26T16:49:44.255Z,5.37
2023-01-26T16:52:12.348Z,5.39
2023-01-26T16:54:41.826Z,5.31
2023-01-26T16:57:09.924Z,5.36
2023-01-26T16:59:37.909Z,5.39
2023-01-26T17:02:10.274Z,5.44
2023-01-26T17:04:38.258Z,5.41
2023-01-26T17:07:06.226Z,5.38
2023-01-26T17:09:34.247Z,5.33
2023-01-26T17:12:02.233Z,5.35
2023-01-26T17:14:30.197Z,5.36
2023-01-26T17:16:58.138Z,5.36
2023-01-26T17:19:27.957Z,5.42
2023-01-26T17:21:55.858Z,5.32
2023-01-26T17:24:23.879Z,5.41
2023-01-26T17:26:51.875Z,5.45
2023-01-26T17:29:19.787Z,5.48
2023-01-26T17:31:47.767Z,5.50
2023-01-26T17:34:16.593Z,5.55
2023-01-26T17:36:46.207Z,5.56
2023-01-26T17:39:14.384Z,5.54
2023-01-26T17:41:42.344Z,5.53
2023-01-26T17:44:10.360Z,5.53
2023-01-26T17:46:38.281Z,5.57
2023-01-26T17:49:06.632Z,5.58
2023-01-26T17:51:34.624Z,5.60
2023-01-26T17:54:03.990Z,5.61
2023-01-26T17:56:32.017Z,5.58
2023-01-26T17:59:00.013Z,5.60
2023-01-26T18:01:28.052Z,5.60
2023-01-26T18:03:56.019Z,5.60
2023-01-26T18:06:23.983Z,5.48
2023-01-26T18:08:51.974Z,5.49
2023-01-26T18:11:21.370Z,5.53
2023-01-26T18:13:49.320Z,5.51
2023-01-26T18:16:18.069Z,5.48
2023-01-26T18:18:46.381Z,5.39
2023-01-26T18:21:15.385Z,5.44
2023-01-26T18:23:45.694Z,5.43
2023-01-26T18:26:13.704Z,5.42
2023-01-26T18:28:43.158Z,5.37
2023-01-26T18:31:12.112Z,5.43
2023-01-26T18:33:40.120Z,5.46
2023-01-26T18:36:09.517Z,5.47
2023-01-26T18:38:37.498Z,5.48
2023-01-26T18:41:05.792Z,5.28
2023-01-26T18:43:33.755Z,5.47
2023-01-26T18:46:03.819Z,5.47
2023-01-26T18:48:31.880Z,5.40
2023-01-26T18:50:59.808Z,5.35
2023-01-26T18:53:27.889Z,5.36
2023-01-26T18:56:02.261Z,5.34
2023-01-26T18:58:32.038Z,5.33
2023-01-26T19:01:00.978Z,5.28
2023-01-26T19:03:30.385Z,5.23
2023-01-26T19:05:58.349Z,5.20
2023-01-26T19:08:26.813Z,5.21
2023-01-26T19:10:54.778Z,5.20
2023-01-26T19:13:22.736Z,5.18
2023-01-26T19:15:50.767Z,5.14
2023-01-26T19:18:18.754Z,5.15
2023-01-26T19:20:58.058Z,5.10
2023-01-26T19:23:26.401Z,5.08
2023-01-26T19:25:54.412Z,5.07
2023-01-26T19:28:22.371Z,5.07
2023-01-26T19:30:50.307Z,5.07
2023-01-26T19:33:28.961Z,5.08
2023-01-26T19:35:58.661Z,5.07
2023-01-26T19:38:26.891Z,5.04
2023-01-26T19:40:54.820Z,5.02
2023-01-26T19:43:23.906Z,5.00
2023-01-26T19:45:53.176Z,4.89
2023-01-26T19:48:21.268Z,4.85
2023-01-26T19:51:03.163Z,4.77
2023-01-26T19:53:31.286Z,4.72
2023-01-26T19:56:00.688Z,4.63
2023-01-26T19:58:29.277Z,4.55
2023-01-26T20:01:00.985Z,4.45
2023-01-26T20:03:29.041Z,4.45
2023-01-26T20:05:57.479Z,4.50
2023-01-26T20:08:26.894Z,4.58
2023-01-26T20:10:54.851Z,4.52
2023-01-26T20:13:22.821Z,4.57
2023-01-26T20:15:50.778Z,4.64
2023-01-26T20:18:18.801Z,4.68
2023-01-26T20:20:50.542Z,4.68
2023-01-26T20:23:18.459Z,4.69
2023-01-26T20:25:47.760Z,4.71
2023-01-26T20:28:15.880Z,4.70
2023-01-26T20:30:46.271Z,4.74
2023-01-26T20:33:14.330Z,4.70
2023-01-26T20:35:43.523Z,4.70
2023-01-26T20:38:11.517Z,4.71
2023-01-26T20:40:40.077Z,4.70
2023-01-26T20:43:09.396Z,4.73
2023-01-26T20:45:40.841Z,4.67
2023-01-26T20:48:08.871Z,4.70
2023-01-26T20:50:40.195Z,4.69
2023-01-26T20:53:08.336Z,4.63
2023-01-26T20:55:36.419Z,4.69
2023-01-26T20:58:06.802Z,4.62
2023-01-26T21:00:36.931Z,4.58
2023-01-26T21:03:05.114Z,4.55
2023-01-26T21:05:33.032Z,4.55
2023-01-26T21:08:01.066Z,4.53
2023-01-26T21:10:29.197Z,4.52
2023-01-26T21:12:57.453Z,4.48
2023-01-26T21:15:25.401Z,4.39
2023-01-26T21:17:54.751Z,4.38
2023-01-26T21:20:22.710Z,4.44
2023-01-26T21:22:50.647Z,4.36
2023-01-26T21:25:18.605Z,4.34
2023-01-26T21:27:46.541Z,4.35
2023-01-26T21:30:15.151Z,4.33
2023-01-26T21:32:43.163Z,4.31
2023-01-26T21:35:14.012Z,4.31
2023-01-26T21:37:41.941Z,4.33
2023-01-26T21:40:11.661Z,4.29
2023-01-26T21:42:39.793Z,4.24
2023-01-26T21:45:26.591Z,4.21
2023-01-26T21:48:08.463Z,4.20
2023-01-26T21:50:56.110Z,4.23
2023-01-26T21:53:24.121Z,4.26
2023-01-26T21:55:52.078Z,4.25
2023-01-26T21:58:37.694Z,4.26
2023-01-26T22:01:08.479Z,4.24
2023-01-26T22:03:36.845Z,4.20
2023-01-26T22:06:06.502Z,4.12
2023-01-26T22:08:34.433Z,4.15
2023-01-26T22:11:02.416Z,4.08
2023-01-26T22:13:30.375Z,4.16
2023-01-26T22:16:03.927Z,4.15
2023-01-26T22:18:32.317Z,4.20
2023-01-26T22:21:00.247Z,4.19
2023-01-26T22:23:31.493Z,4.17
2023-01-26T22:25:59.465Z,4.11
2023-01-26T22:28:27.454Z,4.10
2023-01-26T22:31:02.984Z,4.02
2023-01-26T22:33:31.202Z,4.06
2023-01-26T22:36:02.825Z,4.11
2023-01-26T22:38:32.156Z,4.04
2023-01-26T22:41:00.156Z,4.01
2023-01-26T22:43:28.217Z,4.00
2023-01-26T22:45:56.231Z,4.01
2023-01-26T22:48:24.401Z,4.00
2023-01-26T22:50:52.327Z,3.96
2023-01-26T22:53:20.271Z,3.98
2023-01-26T22:55:51.935Z,3.85
2023-01-26T22:58:19.957Z,3.86
2023-01-26T23:00:47.977Z,3.84
2023-01-26T23:03:15.991Z,3.86
2023-01-26T23:05:43.940Z,3.86
2023-01-26T23:08:11.873Z,3.88
2023-01-26T23:10:40.065Z,3.84
2023-01-26T23:13:09.461Z,3.88
2023-01-26T23:15:39.131Z,3.91
2023-01-26T23:18:07.135Z,3.85
2023-01-26T23:20:35.136Z,3.90
2023-01-26T23:23:03.106Z,3.88
2023-01-26T23:25:48.394Z,3.88
2023-01-26T23:28:17.770Z,3.76
2023-01-26T23:30:45.753Z,3.84
2023-01-26T23:33:13.985Z,3.83
2023-01-26T23:35:41.993Z,3.69
2023-01-26T23:38:10.078Z,3.60
2023-01-26T23:40:38.172Z,3.52
2023-01-26T23:43:16.113Z,3.48
2023-01-26T23:45:46.566Z,3.44
2023-01-26T23:48:14.561Z,3.46
2023-01-26T23:50:42.561Z,3.56
2023-01-26T23:53:10.540Z,3.60
2023-01-26T23:55:40.972Z,3.52
2023-01-26T23:58:08.941Z,3.54
